sensor_id;sensor_type;location;lat;lon;timestamp;temperature;humidity
17984;DHT22;9117;52.420;20.728;2023-04-06T00:00:00;2.20;20.00
17984;DHT22;9117;52.420;20.728;2023-04-06T00:02:28;2.20;21.70
17984;DHT22;9117;52.420;20.728;2023-04-06T00:04:57;2.20;19.30
17984;DHT22;9117;52.420;20.728;2023-04-06T00:07:25;2.30;22.30
17984;DHT22;9117;52.420;20.728;2023-04-06T00:09:55;2.20;20.30
17984;DHT22;9117;52.420;20.728;2023-04-06T00:12:23;2.20;22.20
17984;DHT22;9117;52.420;20.728;2023-04-06T00:14:51;2.20;22.50
17984;DHT22;9117;52.420;20.728;2023-04-06T00:17:21;2.10;24.80
17984;DHT22;9117;52.420;20.728;2023-04-06T00:19:49;2.20;21.60
17984;DHT22;9117;52.420;20.728;2023-04-06T00:22:17;2.20;22.30
17984;DHT22;9117;52.420;20.728;2023-04-06T00:24:45;2.10;18.70
17984;DHT22;9117;52.420;20.728;2023-04-06T00:27:14;2.10;19.20
17984;DHT22;9117;52.420;20.728;2023-04-06T00:29:43;2.20;18.20
17984;DHT22;9117;52.420;20.728;2023-04-06T00:32:12;2.10;15.90
17984;DHT22;9117;52.420;20.728;2023-04-06T00:34:42;2.10;17.40
17984;DHT22;9117;52.420;20.728;2023-04-06T00:37:11;2.20;17.60
17984;DHT22;9117;52.420;20.728;2023-04-06T00:39:39;2.20;19.10
17984;DHT22;9117;52.420;20.728;2023-04-06T00:42:11;2.20;19.10
17984;DHT22;9117;52.420;20.728;2023-04-06T00:44:40;2.20;20.90
17984;DHT22;9117;52.420;20.728;2023-04-06T00:47:09;2.20;16.70
17984;DHT22;9117;52.420;20.728;2023-04-06T00:49:37;2.20;22.70
17984;DHT22;9117;52.420;20.728;2023-04-06T00:52:07;2.20;18.40
17984;DHT22;9117;52.420;20.728;2023-04-06T00:54:35;2.20;21.00
17984;DHT22;9117;52.420;20.728;2023-04-06T00:57:04;2.20;17.60
17984;DHT22;9117;52.420;20.728;2023-04-06T00:59:32;2.20;19.00
17984;DHT22;9117;52.420;20.728;2023-04-06T01:02:00;2.10;19.40
17984;DHT22;9117;52.420;20.728;2023-04-06T01:04:29;2.20;14.70
17984;DHT22;9117;52.420;20.728;2023-04-06T01:06:57;2.10;23.40
17984;DHT22;9117;52.420;20.728;2023-04-06T01:09:27;2.10;22.30
17984;DHT22;9117;52.420;20.728;2023-04-06T01:11:56;2.10;26.40
17984;DHT22;9117;52.420;20.728;2023-04-06T01:14:24;2.10;23.60
17984;DHT22;9117;52.420;20.728;2023-04-06T01:16:53;2.10;25.70
17984;DHT22;9117;52.420;20.728;2023-04-06T01:19:22;2.10;22.30
17984;DHT22;9117;52.420;20.728;2023-04-06T01:21:50;2.10;21.60
17984;DHT22;9117;52.420;20.728;2023-04-06T01:24:21;2.10;21.70
17984;DHT22;9117;52.420;20.728;2023-04-06T01:26:49;2.10;24.90
17984;DHT22;9117;52.420;20.728;2023-04-06T01:29:18;2.10;24.40
17984;DHT22;9117;52.420;20.728;2023-04-06T01:31:46;2.10;30.00
17984;DHT22;9117;52.420;20.728;2023-04-06T01:34:15;2.00;30.20
17984;DHT22;9117;52.420;20.728;2023-04-06T01:36:43;2.00;27.80
17984;DHT22;9117;52.420;20.728;2023-04-06T01:39:11;2.00;29.20
17984;DHT22;9117;52.420;20.728;2023-04-06T01:41:41;2.00;23.40
17984;DHT22;9117;52.420;20.728;2023-04-06T01:44:09;2.00;29.50
17984;DHT22;9117;52.420;20.728;2023-04-06T01:46:37;2.00;27.70
17984;DHT22;9117;52.420;20.728;2023-04-06T01:49:06;2.10;30.90
17984;DHT22;9117;52.420;20.728;2023-04-06T01:51:34;2.00;30.80
17984;DHT22;9117;52.420;20.728;2023-04-06T01:54:03;2.00;30.80
17984;DHT22;9117;52.420;20.728;2023-04-06T01:56:31;2.00;29.60
17984;DHT22;9117;52.420;20.728;2023-04-06T01:59:01;2.00;28.10
17984;DHT22;9117;52.420;20.728;2023-04-06T02:01:29;2.00;26.50
17984;DHT22;9117;52.420;20.728;2023-04-06T02:03:58;1.90;23.30
17984;DHT22;9117;52.420;20.728;2023-04-06T02:06:26;1.90;26.40
17984;DHT22;9117;52.420;20.728;2023-04-06T02:08:54;1.80;24.20
17984;DHT22;9117;52.420;20.728;2023-04-06T02:11:22;1.90;22.70
17984;DHT22;9117;52.420;20.728;2023-04-06T02:13:51;1.90;27.40
17984;DHT22;9117;52.420;20.728;2023-04-06T02:16:21;1.80;24.40
17984;DHT22;9117;52.420;20.728;2023-04-06T02:18:49;1.70;23.30
17984;DHT22;9117;52.420;20.728;2023-04-06T02:21:18;1.70;24.70
17984;DHT22;9117;52.420;20.728;2023-04-06T02:23:47;1.70;31.80
17984;DHT22;9117;52.420;20.728;2023-04-06T02:26:16;1.70;23.40
17984;DHT22;9117;52.420;20.728;2023-04-06T02:28:45;1.70;23.60
17984;DHT22;9117;52.420;20.728;2023-04-06T02:31:13;1.70;20.20
17984;DHT22;9117;52.420;20.728;2023-04-06T02:33:44;1.70;17.70
17984;DHT22;9117;52.420;20.728;2023-04-06T02:36:14;1.70;11.50
17984;DHT22;9117;52.420;20.728;2023-04-06T02:38:43;1.70;13.90
17984;DHT22;9117;52.420;20.728;2023-04-06T02:41:11;1.60;17.70
17984;DHT22;9117;52.420;20.728;2023-04-06T02:43:39;1.60;19.40
17984;DHT22;9117;52.420;20.728;2023-04-06T02:46:07;1.60;10.80
17984;DHT22;9117;52.420;20.728;2023-04-06T02:48:36;1.60;13.40
17984;DHT22;9117;52.420;20.728;2023-04-06T02:51:06;1.70;10.30
17984;DHT22;9117;52.420;20.728;2023-04-06T02:53:34;1.60;16.40
17984;DHT22;9117;52.420;20.728;2023-04-06T02:56:02;1.60;15.10
17984;DHT22;9117;52.420;20.728;2023-04-06T02:58:30;1.60;7.70
17984;DHT22;9117;52.420;20.728;2023-04-06T03:00:59;1.60;13.00
17984;DHT22;9117;52.420;20.728;2023-04-06T03:03:27;1.60;10.30
17984;DHT22;9117;52.420;20.728;2023-04-06T03:05:57;1.60;7.10
17984;DHT22;9117;52.420;20.728;2023-04-06T03:08:28;1.60;5.50
17984;DHT22;9117;52.420;20.728;2023-04-06T03:10:56;1.50;8.30
17984;DHT22;9117;52.420;20.728;2023-04-06T03:13:24;1.50;2.80
17984;DHT22;9117;52.420;20.728;2023-04-06T03:15:53;1.50;1.00
17984;DHT22;9117;52.420;20.728;2023-04-06T03:18:22;1.50;5.70
17984;DHT22;9117;52.420;20.728;2023-04-06T03:20:51;1.40;8.00
17984;DHT22;9117;52.420;20.728;2023-04-06T03:23:21;1.40;3.40
17984;DHT22;9117;52.420;20.728;2023-04-06T03:25:51;1.40;8.20
17984;DHT22;9117;52.420;20.728;2023-04-06T03:28:19;1.40;10.40
17984;DHT22;9117;52.420;20.728;2023-04-06T03:30:47;1.30;10.80
17984;DHT22;9117;52.420;20.728;2023-04-06T03:33:16;1.30;9.30
17984;DHT22;9117;52.420;20.728;2023-04-06T03:35:44;1.20;11.60
17984;DHT22;9117;52.420;20.728;2023-04-06T03:38:12;1.20;15.20
17984;DHT22;9117;52.420;20.728;2023-04-06T03:40:40;1.10;23.70
17984;DHT22;9117;52.420;20.728;2023-04-06T03:43:10;1.10;29.80
17984;DHT22;9117;52.420;20.728;2023-04-06T03:45:39;1.10;16.70
17984;DHT22;9117;52.420;20.728;2023-04-06T03:48:07;1.10;18.60
17984;DHT22;9117;52.420;20.728;2023-04-06T03:50:35;1.10;18.60
17984;DHT22;9117;52.420;20.728;2023-04-06T03:53:04;1.00;16.50
17984;DHT22;9117;52.420;20.728;2023-04-06T03:55:32;1.00;19.30
17984;DHT22;9117;52.420;20.728;2023-04-06T03:58:00;1.00;13.20
17984;DHT22;9117;52.420;20.728;2023-04-06T04:00:30;0.90;10.10
17984;DHT22;9117;52.420;20.728;2023-04-06T04:02:59;0.90;7.30
17984;DHT22;9117;52.420;20.728;2023-04-06T04:05:29;0.90;1.00
17984;DHT22;9117;52.420;20.728;2023-04-06T04:07:57;0.90;8.20
17984;DHT22;9117;52.420;20.728;2023-04-06T04:10:25;0.90;7.70
17984;DHT22;9117;52.420;20.728;2023-04-06T04:12:54;0.90;15.60
17984;DHT22;9117;52.420;20.728;2023-04-06T04:15:22;0.90;20.90
17984;DHT22;9117;52.420;20.728;2023-04-06T04:17:52;0.90;16.50
17984;DHT22;9117;52.420;20.728;2023-04-06T04:20:20;0.90;7.90
17984;DHT22;9117;52.420;20.728;2023-04-06T04:22:51;0.90;8.00
17984;DHT22;9117;52.420;20.728;2023-04-06T04:25:19;0.80;2.50
17984;DHT22;9117;52.420;20.728;2023-04-06T04:27:47;0.90;16.40
17984;DHT22;9117;52.420;20.728;2023-04-06T04:30:15;0.90;5.30
17984;DHT22;9117;52.420;20.728;2023-04-06T04:32:44;0.80;10.50
17984;DHT22;9117;52.420;20.728;2023-04-06T04:35:14;0.80;10.40
17984;DHT22;9117;52.420;20.728;2023-04-06T04:37:42;0.90;1.00
17984;DHT22;9117;52.420;20.728;2023-04-06T04:40:11;0.90;12.20
17984;DHT22;9117;52.420;20.728;2023-04-06T04:42:39;0.90;1.00
17984;DHT22;9117;52.420;20.728;2023-04-06T04:45:08;0.80;1.00
17984;DHT22;9117;52.420;20.728;2023-04-06T04:47:36;0.80;4.80
17984;DHT22;9117;52.420;20.728;2023-04-06T04:50:06;0.80;6.10
17984;DHT22;9117;52.420;20.728;2023-04-06T04:52:37;0.80;1.00
17984;DHT22;9117;52.420;20.728;2023-04-06T04:55:05;0.80;1.00
17984;DHT22;9117;52.420;20.728;2023-04-06T04:57:34;0.90;1.00
17984;DHT22;9117;52.420;20.728;2023-04-06T05:00:03;0.90;1.00
17984;DHT22;9117;52.420;20.728;2023-04-06T05:02:31;0.90;1.00
17984;DHT22;9117;52.420;20.728;2023-04-06T05:04:59;0.90;1.00
17984;DHT22;9117;52.420;20.728;2023-04-06T05:07:28;0.90;1.00
17984;DHT22;9117;52.420;20.728;2023-04-06T05:09:57;0.90;1.00
17984;DHT22;9117;52.420;20.728;2023-04-06T05:12:26;0.90;1.00
17984;DHT22;9117;52.420;20.728;2023-04-06T05:14:54;0.90;1.00
17984;DHT22;9117;52.420;20.728;2023-04-06T05:17:23;1.00;1.00
17984;DHT22;9117;52.420;20.728;2023-04-06T05:19:52;1.10;1.00
17984;DHT22;9117;52.420;20.728;2023-04-06T05:22:20;1.10;1.00
17984;DHT22;9117;52.420;20.728;2023-04-06T05:24:49;1.10;1.00
17984;DHT22;9117;52.420;20.728;2023-04-06T05:27:18;1.10;1.00
17984;DHT22;9117;52.420;20.728;2023-04-06T05:29:47;1.30;1.00
17984;DHT22;9117;52.420;20.728;2023-04-06T05:32:15;1.30;1.00
17984;DHT22;9117;52.420;20.728;2023-04-06T05:34:43;1.30;1.00
17984;DHT22;9117;52.420;20.728;2023-04-06T05:37:12;1.30;1.00
17984;DHT22;9117;52.420;20.728;2023-04-06T05:39:40;1.40;1.00
17984;DHT22;9117;52.420;20.728;2023-04-06T05:42:08;1.50;1.00
17984;DHT22;9117;52.420;20.728;2023-04-06T05:44:38;1.50;1.00
17984;DHT22;9117;52.420;20.728;2023-04-06T05:47:06;1.60;1.00
17984;DHT22;9117;52.420;20.728;2023-04-06T05:49:35;1.70;1.00
17984;DHT22;9117;52.420;20.728;2023-04-06T05:52:03;1.60;1.00
17984;DHT22;9117;52.420;20.728;2023-04-06T05:54:32;1.70;1.00
17984;DHT22;9117;52.420;20.728;2023-04-06T05:57:01;1.80;1.00
17984;DHT22;9117;52.420;20.728;2023-04-06T05:59:30;1.80;1.00
17984;DHT22;9117;52.420;20.728;2023-04-06T06:02:00;1.90;1.00
17984;DHT22;9117;52.420;20.728;2023-04-06T06:04:28;1.80;1.00
17984;DHT22;9117;52.420;20.728;2023-04-06T06:06:57;1.90;1.00
17984;DHT22;9117;52.420;20.728;2023-04-06T06:09:25;1.90;1.00
17984;DHT22;9117;52.420;20.728;2023-04-06T06:11:53;1.90;1.00
17984;DHT22;9117;52.420;20.728;2023-04-06T06:14:22;2.00;1.00
17984;DHT22;9117;52.420;20.728;2023-04-06T06:16:50;2.00;1.00
17984;DHT22;9117;52.420;20.728;2023-04-06T06:19:19;2.10;1.00
17984;DHT22;9117;52.420;20.728;2023-04-06T06:21:48;2.20;1.00
17984;DHT22;9117;52.420;20.728;2023-04-06T06:24:16;2.30;1.00
17984;DHT22;9117;52.420;20.728;2023-04-06T06:26:45;2.30;2.00
17984;DHT22;9117;52.420;20.728;2023-04-06T06:29:15;2.30;1.00
17984;DHT22;9117;52.420;20.728;2023-04-06T06:31:44;2.50;7.80
17984;DHT22;9117;52.420;20.728;2023-04-06T06:34:12;2.50;5.30
17984;DHT22;9117;52.420;20.728;2023-04-06T06:36:42;2.60;1.00
17984;DHT22;9117;52.420;20.728;2023-04-06T06:39:13;2.60;8.70
17984;DHT22;9117;52.420;20.728;2023-04-06T06:41:42;2.60;1.00
17984;DHT22;9117;52.420;20.728;2023-04-06T06:44:10;2.70;1.00
17984;DHT22;9117;52.420;20.728;2023-04-06T06:46:38;2.70;1.00
17984;DHT22;9117;52.420;20.728;2023-04-06T06:49:07;2.60;1.00
17984;DHT22;9117;52.420;20.728;2023-04-06T06:51:35;2.70;2.80
17984;DHT22;9117;52.420;20.728;2023-04-06T06:54:05;2.80;2.10
17984;DHT22;9117;52.420;20.728;2023-04-06T06:56:33;2.80;8.00
17984;DHT22;9117;52.420;20.728;2023-04-06T06:59:02;3.00;11.60
17984;DHT22;9117;52.420;20.728;2023-04-06T07:01:31;3.10;13.30
17984;DHT22;9117;52.420;20.728;2023-04-06T07:04:00;3.10;19.60
17984;DHT22;9117;52.420;20.728;2023-04-06T07:06:29;3.10;21.90
17984;DHT22;9117;52.420;20.728;2023-04-06T07:08:57;3.10;23.00
17984;DHT22;9117;52.420;20.728;2023-04-06T07:11:26;3.10;24.70
17984;DHT22;9117;52.420;20.728;2023-04-06T07:13:55;3.10;20.50
17984;DHT22;9117;52.420;20.728;2023-04-06T07:16:23;3.10;17.90
17984;DHT22;9117;52.420;20.728;2023-04-06T07:18:51;3.10;16.30
17984;DHT22;9117;52.420;20.728;2023-04-06T07:21:20;3.50;14.40
17984;DHT22;9117;52.420;20.728;2023-04-06T07:23:48;3.30;19.70
17984;DHT22;9117;52.420;20.728;2023-04-06T07:26:17;3.30;21.80
17984;DHT22;9117;52.420;20.728;2023-04-06T07:28:47;3.20;23.90
17984;DHT22;9117;52.420;20.728;2023-04-06T07:31:15;3.30;17.80
17984;DHT22;9117;52.420;20.728;2023-04-06T07:33:43;3.40;15.70
17984;DHT22;9117;52.420;20.728;2023-04-06T07:36:12;3.60;16.70
17984;DHT22;9117;52.420;20.728;2023-04-06T07:38:40;3.60;12.00
17984;DHT22;9117;52.420;20.728;2023-04-06T07:41:08;3.70;15.20
17984;DHT22;9117;52.420;20.728;2023-04-06T07:43:36;3.80;17.70
17984;DHT22;9117;52.420;20.728;2023-04-06T07:46:06;3.80;19.00
17984;DHT22;9117;52.420;20.728;2023-04-06T07:48:34;3.80;19.20
17984;DHT22;9117;52.420;20.728;2023-04-06T07:51:04;3.70;19.30
17984;DHT22;9117;52.420;20.728;2023-04-06T07:53:33;3.80;25.30
17984;DHT22;9117;52.420;20.728;2023-04-06T07:56:01;3.80;23.70
17984;DHT22;9117;52.420;20.728;2023-04-06T07:58:29;3.80;20.90
17984;DHT22;9117;52.420;20.728;2023-04-06T08:00:58;3.90;24.20
17984;DHT22;9117;52.420;20.728;2023-04-06T08:03:27;3.80;20.10
17984;DHT22;9117;52.420;20.728;2023-04-06T08:05:56;3.90;27.30
17984;DHT22;9117;52.420;20.728;2023-04-06T08:08:24;3.70;27.90
17984;DHT22;9117;52.420;20.728;2023-04-06T08:10:53;3.90;27.00
17984;DHT22;9117;52.420;20.728;2023-04-06T08:13:21;3.80;23.90
17984;DHT22;9117;52.420;20.728;2023-04-06T08:15:49;3.70;29.00
17984;DHT22;9117;52.420;20.728;2023-04-06T08:18:18;3.70;25.20
17984;DHT22;9117;52.420;20.728;2023-04-06T08:20:47;3.70;21.20
17984;DHT22;9117;52.420;20.728;2023-04-06T08:23:16;3.70;18.80
17984;DHT22;9117;52.420;20.728;2023-04-06T08:25:45;3.60;25.50
17984;DHT22;9117;52.420;20.728;2023-04-06T08:28:13;3.60;17.90
17984;DHT22;9117;52.420;20.728;2023-04-06T08:30:41;3.70;17.10
17984;DHT22;9117;52.420;20.728;2023-04-06T08:33:10;3.70;16.50
17984;DHT22;9117;52.420;20.728;2023-04-06T08:35:39;3.80;24.40
17984;DHT22;9117;52.420;20.728;2023-04-06T08:38:08;3.80;21.80
17984;DHT22;9117;52.420;20.728;2023-04-06T08:40:37;3.80;26.30
17984;DHT22;9117;52.420;20.728;2023-04-06T08:43:08;3.90;26.40
17984;DHT22;9117;52.420;20.728;2023-04-06T08:45:40;3.80;25.20
17984;DHT22;9117;52.420;20.728;2023-04-06T08:48:08;3.70;24.00
17984;DHT22;9117;52.420;20.728;2023-04-06T08:50:38;3.80;26.00
17984;DHT22;9117;52.420;20.728;2023-04-06T08:53:09;3.70;22.70
17984;DHT22;9117;52.420;20.728;2023-04-06T08:55:39;3.60;24.90
17984;DHT22;9117;52.420;20.728;2023-04-06T08:58:08;3.50;22.80
17984;DHT22;9117;52.420;20.728;2023-04-06T09:00:38;3.50;21.50
17984;DHT22;9117;52.420;20.728;2023-04-06T09:03:07;3.40;20.20
17984;DHT22;9117;52.420;20.728;2023-04-06T09:05:36;3.30;15.70
17984;DHT22;9117;52.420;20.728;2023-04-06T09:08:06;3.40;17.90
17984;DHT22;9117;52.420;20.728;2023-04-06T09:10:36;3.50;19.50
17984;DHT22;9117;52.420;20.728;2023-04-06T09:13:08;3.50;19.20
17984;DHT22;9117;52.420;20.728;2023-04-06T09:15:37;3.30;23.30
17984;DHT22;9117;52.420;20.728;2023-04-06T09:18:06;3.30;25.90
17984;DHT22;9117;52.420;20.728;2023-04-06T09:20:35;3.30;18.50
17984;DHT22;9117;52.420;20.728;2023-04-06T09:23:03;3.30;27.70
17984;DHT22;9117;52.420;20.728;2023-04-06T09:25:31;3.30;31.70
17984;DHT22;9117;52.420;20.728;2023-04-06T09:28:02;3.20;34.10
17984;DHT22;9117;52.420;20.728;2023-04-06T09:30:31;3.20;28.30
17984;DHT22;9117;52.420;20.728;2023-04-06T09:32:59;3.20;29.70
17984;DHT22;9117;52.420;20.728;2023-04-06T09:35:28;3.30;33.30
17984;DHT22;9117;52.420;20.728;2023-04-06T09:37:58;3.50;32.90
17984;DHT22;9117;52.420;20.728;2023-04-06T09:40:26;3.50;27.40
17984;DHT22;9117;52.420;20.728;2023-04-06T09:42:56;3.50;30.90
17984;DHT22;9117;52.420;20.728;2023-04-06T09:45:29;3.50;31.10
17984;DHT22;9117;52.420;20.728;2023-04-06T09:47:59;3.40;32.30
17984;DHT22;9117;52.420;20.728;2023-04-06T09:50:28;3.40;29.30
17984;DHT22;9117;52.420;20.728;2023-04-06T09:52:58;3.40;26.00
17984;DHT22;9117;52.420;20.728;2023-04-06T09:55:30;3.30;27.60
17984;DHT22;9117;52.420;20.728;2023-04-06T09:58:04;3.30;27.00
17984;DHT22;9117;52.420;20.728;2023-04-06T10:00:42;3.30;29.60
17984;DHT22;9117;52.420;20.728;2023-04-06T10:03:17;3.20;28.90
17984;DHT22;9117;52.420;20.728;2023-04-06T10:05:52;3.20;29.60
17984;DHT22;9117;52.420;20.728;2023-04-06T10:08:26;3.30;29.60
17984;DHT22;9117;52.420;20.728;2023-04-06T10:10:59;3.30;30.00
17984;DHT22;9117;52.420;20.728;2023-04-06T10:13:28;3.30;28.40
17984;DHT22;9117;52.420;20.728;2023-04-06T10:15:59;3.40;29.00
17984;DHT22;9117;52.420;20.728;2023-04-06T10:18:28;3.40;27.50
17984;DHT22;9117;52.420;20.728;2023-04-06T10:21:01;3.30;31.40
17984;DHT22;9117;52.420;20.728;2023-04-06T10:23:32;3.40;27.20
17984;DHT22;9117;52.420;20.728;2023-04-06T10:26:02;3.30;30.00
17984;DHT22;9117;52.420;20.728;2023-04-06T10:28:32;3.40;32.90
17984;DHT22;9117;52.420;20.728;2023-04-06T10:31:05;3.20;28.90
17984;DHT22;9117;52.420;20.728;2023-04-06T10:33:34;3.20;28.70
17984;DHT22;9117;52.420;20.728;2023-04-06T10:36:10;3.30;29.40
17984;DHT22;9117;52.420;20.728;2023-04-06T10:38:39;3.20;29.20
17984;DHT22;9117;52.420;20.728;2023-04-06T10:41:09;3.30;31.20
17984;DHT22;9117;52.420;20.728;2023-04-06T10:43:39;3.20;25.70
17984;DHT22;9117;52.420;20.728;2023-04-06T10:46:09;3.10;22.50
17984;DHT22;9117;52.420;20.728;2023-04-06T10:48:39;3.10;20.20
17984;DHT22;9117;52.420;20.728;2023-04-06T10:51:09;3.00;17.10
17984;DHT22;9117;52.420;20.728;2023-04-06T10:53:38;3.00;15.50
17984;DHT22;9117;52.420;20.728;2023-04-06T10:56:10;3.00;12.50
17984;DHT22;9117;52.420;20.728;2023-04-06T10:58:44;2.90;29.10
17984;DHT22;9117;52.420;20.728;2023-04-06T11:01:16;2.90;13.80
17984;DHT22;9117;52.420;20.728;2023-04-06T11:03:45;2.90;6.10
17984;DHT22;9117;52.420;20.728;2023-04-06T11:06:20;2.80;18.10
17984;DHT22;9117;52.420;20.728;2023-04-06T11:08:48;2.80;22.10
17984;DHT22;9117;52.420;20.728;2023-04-06T11:11:19;2.70;20.10
17984;DHT22;9117;52.420;20.728;2023-04-06T11:13:50;2.70;12.10
17984;DHT22;9117;52.420;20.728;2023-04-06T11:16:22;2.70;13.50
17984;DHT22;9117;52.420;20.728;2023-04-06T11:18:53;2.80;13.40
17984;DHT22;9117;52.420;20.728;2023-04-06T11:21:33;2.80;10.90
17984;DHT22;9117;52.420;20.728;2023-04-06T11:24:06;2.90;16.50
17984;DHT22;9117;52.420;20.728;2023-04-06T11:26:41;3.00;20.50
17984;DHT22;9117;52.420;20.728;2023-04-06T11:29:11;3.00;7.00
17984;DHT22;9117;52.420;20.728;2023-04-06T11:31:43;3.10;18.40
17984;DHT22;9117;52.420;20.728;2023-04-06T11:34:13;3.00;23.30
17984;DHT22;9117;52.420;20.728;2023-04-06T11:36:44;3.10;22.00
17984;DHT22;9117;52.420;20.728;2023-04-06T11:39:17;3.00;14.00
17984;DHT22;9117;52.420;20.728;2023-04-06T11:41:47;3.00;17.70
17984;DHT22;9117;52.420;20.728;2023-04-06T11:44:28;3.00;19.90
17984;DHT22;9117;52.420;20.728;2023-04-06T11:46:58;3.10;11.70
17984;DHT22;9117;52.420;20.728;2023-04-06T11:49:27;3.10;4.00
17984;DHT22;9117;52.420;20.728;2023-04-06T11:51:56;3.10;1.90
17984;DHT22;9117;52.420;20.728;2023-04-06T11:54:32;3.20;1.00
17984;DHT22;9117;52.420;20.728;2023-04-06T11:57:01;3.10;8.00
17984;DHT22;9117;52.420;20.728;2023-04-06T11:59:29;3.10;5.00
17984;DHT22;9117;52.420;20.728;2023-04-06T12:02:01;3.10;4.10
17984;DHT22;9117;52.420;20.728;2023-04-06T12:04:29;3.10;1.00
17984;DHT22;9117;52.420;20.728;2023-04-06T12:06:58;3.20;3.20
17984;DHT22;9117;52.420;20.728;2023-04-06T12:09:26;3.20;1.00
17984;DHT22;9117;52.420;20.728;2023-04-06T12:11:55;3.20;5.70
17984;DHT22;9117;52.420;20.728;2023-04-06T12:14:23;3.40;1.00
17984;DHT22;9117;52.420;20.728;2023-04-06T12:16:52;3.40;8.30
17984;DHT22;9117;52.420;20.728;2023-04-06T12:19:22;3.30;3.80
17984;DHT22;9117;52.420;20.728;2023-04-06T12:21:52;3.30;4.20
17984;DHT22;9117;52.420;20.728;2023-04-06T12:24:21;3.30;4.50
17984;DHT22;9117;52.420;20.728;2023-04-06T12:26:49;3.40;1.00
17984;DHT22;9117;52.420;20.728;2023-04-06T12:29:28;3.40;2.20
17984;DHT22;9117;52.420;20.728;2023-04-06T12:31:57;3.40;3.60
17984;DHT22;9117;52.420;20.728;2023-04-06T12:34:27;3.50;5.30
17984;DHT22;9117;52.420;20.728;2023-04-06T12:36:55;3.50;1.00
17984;DHT22;9117;52.420;20.728;2023-04-06T12:39:24;3.50;11.00
17984;DHT22;9117;52.420;20.728;2023-04-06T12:41:53;3.50;8.50
17984;DHT22;9117;52.420;20.728;2023-04-06T12:44:22;3.60;7.40
17984;DHT22;9117;52.420;20.728;2023-04-06T12:46:52;3.60;2.40
17984;DHT22;9117;52.420;20.728;2023-04-06T12:49:21;3.60;2.40
17984;DHT22;9117;52.420;20.728;2023-04-06T12:51:50;3.70;1.00
17984;DHT22;9117;52.420;20.728;2023-04-06T12:54:18;3.70;4.50
17984;DHT22;9117;52.420;20.728;2023-04-06T12:56:47;3.70;12.40
17984;DHT22;9117;52.420;20.728;2023-04-06T12:59:15;3.70;20.30
17984;DHT22;9117;52.420;20.728;2023-04-06T13:01:44;3.80;8.90
17984;DHT22;9117;52.420;20.728;2023-04-06T13:04:12;3.70;2.20
17984;DHT22;9117;52.420;20.728;2023-04-06T13:06:41;3.70;6.00
17984;DHT22;9117;52.420;20.728;2023-04-06T13:09:10;3.70;12.50
17984;DHT22;9117;52.420;20.728;2023-04-06T13:11:39;3.70;7.70
17984;DHT22;9117;52.420;20.728;2023-04-06T13:14:08;3.60;10.70
17984;DHT22;9117;52.420;20.728;2023-04-06T13:16:36;3.90;8.50
17984;DHT22;9117;52.420;20.728;2023-04-06T13:19:05;3.70;14.70
17984;DHT22;9117;52.420;20.728;2023-04-06T13:21:33;3.70;12.50
17984;DHT22;9117;52.420;20.728;2023-04-06T13:24:01;3.70;6.00
17984;DHT22;9117;52.420;20.728;2023-04-06T13:26:31;3.60;18.20
17984;DHT22;9117;52.420;20.728;2023-04-06T13:28:59;3.80;18.50
17984;DHT22;9117;52.420;20.728;2023-04-06T13:31:29;3.80;19.00
17984;DHT22;9117;52.420;20.728;2023-04-06T13:33:58;3.80;17.10
17984;DHT22;9117;52.420;20.728;2023-04-06T13:36:26;3.70;17.80
17984;DHT22;9117;52.420;20.728;2023-04-06T13:38:54;3.70;19.20
17984;DHT22;9117;52.420;20.728;2023-04-06T13:41:24;3.70;2.50
17984;DHT22;9117;52.420;20.728;2023-04-06T13:43:54;3.70;11.20
17984;DHT22;9117;52.420;20.728;2023-04-06T13:46:24;3.70;16.50
17984;DHT22;9117;52.420;20.728;2023-04-06T13:48:54;3.70;15.50
17984;DHT22;9117;52.420;20.728;2023-04-06T13:51:22;3.70;19.30
17984;DHT22;9117;52.420;20.728;2023-04-06T13:53:50;3.70;18.40
17984;DHT22;9117;52.420;20.728;2023-04-06T13:56:20;3.80;24.10
17984;DHT22;9117;52.420;20.728;2023-04-06T13:58:48;3.80;19.80
17984;DHT22;9117;52.420;20.728;2023-04-06T14:01:18;3.80;19.40
17984;DHT22;9117;52.420;20.728;2023-04-06T14:03:48;3.70;15.10
17984;DHT22;9117;52.420;20.728;2023-04-06T14:06:16;3.80;7.20
17984;DHT22;9117;52.420;20.728;2023-04-06T14:08:47;3.80;13.10
17984;DHT22;9117;52.420;20.728;2023-04-06T14:11:16;3.70;12.60
17984;DHT22;9117;52.420;20.728;2023-04-06T14:13:44;3.70;14.10
17984;DHT22;9117;52.420;20.728;2023-04-06T14:16:13;3.70;11.30
17984;DHT22;9117;52.420;20.728;2023-04-06T14:18:43;3.70;19.10
17984;DHT22;9117;52.420;20.728;2023-04-06T14:21:12;3.70;15.20
17984;DHT22;9117;52.420;20.728;2023-04-06T14:23:40;3.80;14.40
17984;DHT22;9117;52.420;20.728;2023-04-06T14:26:09;3.70;15.80
17984;DHT22;9117;52.420;20.728;2023-04-06T14:28:37;3.70;8.60
17984;DHT22;9117;52.420;20.728;2023-04-06T14:31:10;3.70;17.70
17984;DHT22;9117;52.420;20.728;2023-04-06T14:33:40;3.70;10.50
17984;DHT22;9117;52.420;20.728;2023-04-06T14:36:10;3.80;16.90
17984;DHT22;9117;52.420;20.728;2023-04-06T14:38:38;3.70;13.60
17984;DHT22;9117;52.420;20.728;2023-04-06T14:41:08;3.70;13.10
17984;DHT22;9117;52.420;20.728;2023-04-06T14:43:37;3.70;14.60
17984;DHT22;9117;52.420;20.728;2023-04-06T14:46:05;3.60;12.40
17984;DHT22;9117;52.420;20.728;2023-04-06T14:48:35;3.60;18.60
17984;DHT22;9117;52.420;20.728;2023-04-06T14:51:03;3.70;10.80
17984;DHT22;9117;52.420;20.728;2023-04-06T14:53:37;3.60;12.70
17984;DHT22;9117;52.420;20.728;2023-04-06T14:56:06;3.70;13.90
17984;DHT22;9117;52.420;20.728;2023-04-06T14:58:34;3.70;13.70
17984;DHT22;9117;52.420;20.728;2023-04-06T15:01:02;3.70;13.70
17984;DHT22;9117;52.420;20.728;2023-04-06T15:03:30;3.70;6.50
17984;DHT22;9117;52.420;20.728;2023-04-06T15:05:59;3.70;8.50
17984;DHT22;9117;52.420;20.728;2023-04-06T15:08:27;3.70;6.30
17984;DHT22;9117;52.420;20.728;2023-04-06T15:10:59;3.70;16.10
17984;DHT22;9117;52.420;20.728;2023-04-06T15:13:28;3.70;11.70
17984;DHT22;9117;52.420;20.728;2023-04-06T15:15:56;3.70;11.90
17984;DHT22;9117;52.420;20.728;2023-04-06T15:18:27;3.70;15.10
17984;DHT22;9117;52.420;20.728;2023-04-06T15:20:56;3.80;4.30
17984;DHT22;9117;52.420;20.728;2023-04-06T15:23:24;3.70;10.60
17984;DHT22;9117;52.420;20.728;2023-04-06T15:25:52;3.70;1.00
17984;DHT22;9117;52.420;20.728;2023-04-06T15:28:22;3.70;11.10
17984;DHT22;9117;52.420;20.728;2023-04-06T15:30:51;3.70;2.30
17984;DHT22;9117;52.420;20.728;2023-04-06T15:33:20;3.60;6.90
17984;DHT22;9117;52.420;20.728;2023-04-06T15:35:49;3.60;4.10
17984;DHT22;9117;52.420;20.728;2023-04-06T15:38:17;3.60;16.10
17984;DHT22;9117;52.420;20.728;2023-04-06T15:40:47;3.60;1.00
17984;DHT22;9117;52.420;20.728;2023-04-06T15:43:15;3.60;4.70
17984;DHT22;9117;52.420;20.728;2023-04-06T15:45:45;3.60;14.60
17984;DHT22;9117;52.420;20.728;2023-04-06T15:48:13;3.60;16.40
17984;DHT22;9117;52.420;20.728;2023-04-06T15:50:41;3.60;1.00
17984;DHT22;9117;52.420;20.728;2023-04-06T15:53:10;3.60;10.20
17984;DHT22;9117;52.420;20.728;2023-04-06T15:55:40;3.60;16.00
17984;DHT22;9117;52.420;20.728;2023-04-06T15:58:09;3.60;8.10
17984;DHT22;9117;52.420;20.728;2023-04-06T16:00:37;3.60;14.50